Wetterdaten: Woche 12.08.19 - 18.08.19 (KW33)
Datum Zeit Temp. Aussen Temp. o. S. +5cm Feuchte Auss Luftdruck Regen Sonnenschein Regendauer Solar Windben Empfang
12.08.2019 00:00 17,9 C 16,2 C 16,2 C 69 % 1015,1 hPa 0,0 l/m 0,00 h 0,00 h 0 W/m 6,2 km/h (2 Bft) 96,23 %
12.08.2019 01:00 16,8 C 15,6 C 15,2 C 73 % 1014,9 hPa 0,0 l/m 0,00 h 0,00 h 0 W/m 7,8 km/h (2 Bft) 99,25 %
12.08.2019 02:00 16,2 C 15,0 C 14,9 C 76 % 1014,8 hPa 0,0 l/m 0,00 h 0,00 h 0 W/m 10,3 km/h (2 Bft) 97,12 %
12.08.2019 03:00 15,5 C 14,3 C 14,1 C 78 % 1014,7 hPa 0,0 l/m 0,00 h 0,00 h 0 W/m 10,0 km/h (2 Bft) 95,47 %
12.08.2019 04:00 14,9 C 13,9 C 13,6 C 81 % 1014,9 hPa 0,0 l/m 0,00 h 0,00 h 0 W/m 9,7 km/h (2 Bft) 99,72 %
12.08.2019 05:00 14,5 C 13,5 C 13,4 C 83 % 1014,9 hPa 0,0 l/m 0,00 h 0,00 h 0 W/m 6,5 km/h (2 Bft) 97,65 %
12.08.2019 06:00 14,2 C 13,3 C 12,8 C 85 % 1015,2 hPa 0,0 l/m 0,00 h 0,00 h 11 W/m 7,5 km/h (2 Bft) 96,43 %
12.08.2019 07:00 14,2 C 14,3 C 13,8 C 87 % 1015,3 hPa 0,0 l/m 0,00 h 0,00 h 40 W/m 8,2 km/h (2 Bft) 95,50 %
12.08.2019 08:00 15,8 C 17,8 C 16,0 C 84 % 1015,3 hPa 0,0 l/m 0,33 h 0,00 h 159 W/m 11,5 km/h (2 Bft) 96,87 %
12.08.2019 09:00 18,8 C 23,1 C 22,7 C 75 % 1015,3 hPa 0,0 l/m 0,93 h 0,00 h 419 W/m 9,7 km/h (2 Bft) 98,15 %
12.08.2019 10:00 21,0 C 24,7 C 25,2 C 68 % 1015,3 hPa 0,0 l/m 0,93 h 0,00 h 553 W/m 12,9 km/h (3 Bft) 98,50 %
12.08.2019 11:00 22,4 C 25,8 C 25,2 C 62 % 1015,0 hPa 0,0 l/m 0,70 h 0,00 h 598 W/m 14,8 km/h (3 Bft) 97,65 %
12.08.2019 12:00 23,0 C 26,1 C 23,4 C 60 % 1014,8 hPa 0,0 l/m 0,53 h 0,00 h 530 W/m 12,2 km/h (2 Bft) 96,94 %
12.08.2019 13:00 24,2 C 27,7 C 26,0 C 55 % 1014,2 hPa 0,0 l/m 0,70 h 0,00 h 694 W/m 14,7 km/h (3 Bft) 96,44 %
12.08.2019 14:00 24,5 C 26,3 C 25,3 C 52 % 1013,4 hPa 0,0 l/m 0,37 h 0,00 h 425 W/m 11,5 km/h (2 Bft) 98,43 %
12.08.2019 15:00 23,9 C 22,0 C 21,8 C 55 % 1013,3 hPa 4,2 l/m 0,00 h 0,20 h 102 W/m 11,8 km/h (2 Bft) 98,72 %
12.08.2019 16:00 17,5 C 15,5 C 14,7 C 83 % 1013,9 hPa 1,6 l/m 0,20 h 0,40 h 217 W/m 15,1 km/h (3 Bft) 94,16 %
12.08.2019 17:00 17,7 C 17,5 C 15,4 C 85 % 1013,9 hPa 0,4 l/m 0,13 h 0,17 h 167 W/m 11,8 km/h (2 Bft) 99,14 %
12.08.2019 18:00 15,1 C 12,9 C 13,0 C 90 % 1014,8 hPa 4,0 l/m 0,00 h 0,63 h 21 W/m 4,8 km/h (1 Bft) 98,49 %
12.08.2019 19:00 14,4 C 13,0 C 13,0 C 94 % 1014,4 hPa 0,0 l/m 0,00 h 0,07 h 27 W/m 1,7 km/h (1 Bft) 95,65 %
12.08.2019 20:00 14,3 C 13,2 C 12,9 C 95 % 1014,8 hPa 0,0 l/m 0,53 h 0,00 h 39 W/m 5,7 km/h (1 Bft) 98,36 %
12.08.2019 21:00 13,9 C 12,5 C 12,2 C 95 % 1015,2 hPa 0,0 l/m 0,00 h 0,00 h 0 W/m 4,0 km/h (1 Bft) 96,73 %
12.08.2019 22:00 13,3 C 12,2 C 11,7 C 96 % 1015,1 hPa 0,0 l/m 0,00 h 0,00 h 0 W/m 2,5 km/h (1 Bft) 97,36 %
12.08.2019 23:00 13,1 C 12,1 C 11,7 C 96 % 1015,3 hPa 0,0 l/m 0,00 h 0,00 h 0 W/m 2,7 km/h (1 Bft) 97,22 %
13.08.2019 00:00 12,9 C 11,7 C 11,7 C 97 % 1015,3 hPa 0,0 l/m 0,00 h 0,00 h 0 W/m 2,0 km/h (1 Bft) 92,65 %
13.08.2019 01:00 12,9 C 11,9 C 11,7 C 97 % 1015,1 hPa 0,0 l/m 0,00 h 0,17 h 0 W/m 1,8 km/h (1 Bft) 98,79 %
13.08.2019 02:00 13,0 C 12,2 C 11,9 C 97 % 1015,2 hPa 0,0 l/m 0,00 h 0,13 h 0 W/m 3,8 km/h (1 Bft) 97,81 %
13.08.2019 03:00 13,0 C 12,0 C 11,8 C 97 % 1015,2 hPa 0,0 l/m 0,00 h 0,00 h 0 W/m 5,7 km/h (1 Bft) 95,30 %
13.08.2019 04:00 12,9 C 12,2 C 11,7 C 97 % 1015,2 hPa 0,0 l/m 0,00 h 0,00 h 0 W/m 12,6 km/h (3 Bft) 98,77 %
13.08.2019 05:00 12,8 C 11,7 C 11,6 C 97 % 1015,6 hPa 0,0 l/m 0,00 h 0,00 h 0 W/m 9,2 km/h (2 Bft) 97,58 %
13.08.2019 06:00 12,8 C 11,9 C 11,8 C 97 % 1016,1 hPa 0,0 l/m 0,00 h 0,00 h 7 W/m 6,1 km/h (2 Bft) 95,40 %
13.08.2019 07:00 12,9 C 12,5 C 12,2 C 97 % 1016,6 hPa 0,0 l/m 0,00 h 0,00 h 55 W/m 5,2 km/h (1 Bft) 99,64 %
13.08.2019 08:00 13,3 C 14,5 C 12,9 C 97 % 1017,2 hPa 0,0 l/m 0,37 h 0,00 h 157 W/m 11,1 km/h (2 Bft) 97,02 %
13.08.2019 09:00 15,0 C 19,3 C 18,6 C 91 % 1017,5 hPa 0,0 l/m 1,00 h 0,00 h 430 W/m 13,2 km/h (3 Bft) 95,80 %
13.08.2019 10:00 17,4 C 21,8 C 22,1 C 81 % 1017,8 hPa 0,0 l/m 1,00 h 0,00 h 601 W/m 12,1 km/h (2 Bft) 98,08 %
13.08.2019 11:00 18,7 C 21,7 C 20,5 C 74 % 1017,8 hPa 0,0 l/m 0,70 h 0,00 h 564 W/m 12,5 km/h (3 Bft) 98,93 %
13.08.2019 12:00 20,2 C 24,4 C 20,7 C 63 % 1017,6 hPa 0,0 l/m 0,73 h 0,00 h 646 W/m 15,4 km/h (3 Bft) 97,95 %
13.08.2019 13:00 21,4 C 23,5 C 21,3 C 55 % 1017,4 hPa 0,0 l/m 0,37 h 0,00 h 479 W/m 17,2 km/h (3 Bft) 97,58 %
13.08.2019 14:00 20,8 C 22,6 C 21,3 C 56 % 1017,3 hPa 0,0 l/m 0,37 h 0,00 h 455 W/m 17,1 km/h (3 Bft) 96,87 %
13.08.2019 15:00 21,1 C 22,4 C 21,1 C 54 % 1017,0 hPa 0,0 l/m 0,27 h 0,00 h 377 W/m 15,8 km/h (3 Bft) 96,57 %
13.08.2019 16:00 19,9 C 19,2 C 18,7 C 62 % 1017,4 hPa 0,0 l/m 0,10 h 0,20 h 191 W/m 14,7 km/h (3 Bft) 99,00 %
13.08.2019 17:00 16,1 C 13,7 C 13,8 C 83 % 1018,3 hPa 0,2 l/m 0,00 h 0,60 h 54 W/m 8,3 km/h (2 Bft) 98,22 %
13.08.2019 18:00 15,1 C 14,2 C 14,2 C 86 % 1018,0 hPa 0,0 l/m 0,00 h 0,00 h 46 W/m 3,9 km/h (1 Bft) 95,88 %
13.08.2019 19:00 15,2 C 15,0 C 14,7 C 86 % 1017,9 hPa 0,0 l/m 0,07 h 0,03 h 72 W/m 7,4 km/h (2 Bft) 97,44 %
13.08.2019 20:00 15,3 C 14,1 C 13,9 C 86 % 1017,9 hPa 0,0 l/m 0,00 h 0,00 h 24 W/m 7,8 km/h (2 Bft) 97,08 %
13.08.2019 21:00 14,7 C 13,4 C 13,3 C 89 % 1018,1 hPa 0,0 l/m 0,00 h 0,00 h 0 W/m 4,6 km/h (1 Bft) 97,93 %
13.08.2019 22:00 14,2 C 13,3 C 13,2 C 90 % 1018,2 hPa 0,0 l/m 0,00 h 0,00 h 0 W/m 1,6 km/h (1 Bft) 97,58 %
13.08.2019 23:00 13,9 C 12,5 C 12,4 C 89 % 1018,4 hPa 0,0 l/m 0,00 h 0,00 h 0 W/m 2,9 km/h (1 Bft) 97,01 %
14.08.2019 00:00 13,0 C 11,4 C 11,5 C 89 % 1018,4 hPa 0,0 l/m 0,00 h 0,00 h 0 W/m 2,5 km/h (1 Bft) 97,37 %
14.08.2019 01:00 12,1 C 10,6 C 10,6 C 90 % 1018,4 hPa 0,0 l/m 0,00 h 0,00 h 0 W/m 1,2 km/h (1 Bft) 97,51 %
14.08.2019 02:00 11,5 C 10,6 C 10,6 C 91 % 1018,3 hPa 0,0 l/m 0,00 h 0,00 h 0 W/m 2,6 km/h (1 Bft) 98,01 %
14.08.2019 03:00 11,3 C 10,2 C 10,2 C 92 % 1018,3 hPa 0,0 l/m 0,00 h 0,00 h 0 W/m 0,3 km/h (0 Bft) 95,87 %
14.08.2019 04:00 10,9 C 9,1 C 9,0 C 92 % 1018,4 hPa 0,0 l/m 0,00 h 0,00 h 0 W/m 0,0 km/h (0 Bft) 98,86 %
14.08.2019 05:00 10,5 C 9,7 C 9,5 C 93 % 1018,1 hPa 0,0 l/m 0,00 h 0,00 h 0 W/m 3,0 km/h (1 Bft) 99,15 %
14.08.2019 06:00 10,9 C 10,1 C 10,0 C 95 % 1018,3 hPa 0,0 l/m 0,00 h 0,00 h 9 W/m 1,2 km/h (1 Bft) 94,70 %
14.08.2019 07:00 11,0 C 11,0 C 10,5 C 96 % 1018,5 hPa 0,0 l/m 0,00 h 0,00 h 29 W/m 1,4 km/h (1 Bft) 98,79 %
14.08.2019 08:00 11,9 C 13,8 C 12,2 C 97 % 1018,8 hPa 0,0 l/m 0,33 h 0,00 h 133 W/m 4,3 km/h (1 Bft) 98,72 %
14.08.2019 09:00 15,3 C 20,9 C 20,7 C 92 % 1018,7 hPa 0,0 l/m 1,00 h 0,00 h 445 W/m 11,1 km/h (2 Bft) 95,45 %
14.08.2019 10:00 18,5 C 22,3 C 23,6 C 75 % 1018,6 hPa 0,0 l/m 0,97 h 0,00 h 611 W/m 13,9 km/h (3 Bft) 96,94 %
14.08.2019 11:00 19,9 C 23,9 C 21,8 C 67 % 1018,4 hPa 0,0 l/m 0,93 h 0,00 h 731 W/m 13,8 km/h (3 Bft) 97,58 %
14.08.2019 12:00 21,6 C 26,5 C 21,3 C 59 % 1018,0 hPa 0,0 l/m 1,00 h 0,00 h 871 W/m 16,4 km/h (3 Bft) 98,56 %
14.08.2019 13:00 22,5 C 26,7 C 24,1 C 55 % 1017,6 hPa 0,0 l/m 0,93 h 0,00 h 879 W/m 16,2 km/h (3 Bft) 96,94 %
14.08.2019 14:00 23,3 C 27,3 C 26,1 C 52 % 1017,2 hPa 0,0 l/m 0,97 h 0,00 h 882 W/m 16,5 km/h (3 Bft) 97,30 %
14.08.2019 15:00 23,8 C 27,7 C 23,5 C 48 % 1016,5 hPa 0,0 l/m 1,00 h 0,00 h 831 W/m 17,7 km/h (3 Bft) 97,93 %
14.08.2019 16:00 24,1 C 26,6 C 25,1 C 46 % 1016,0 hPa 0,0 l/m 0,80 h 0,00 h 591 W/m 17,6 km/h (3 Bft) 96,95 %
14.08.2019 17:00 23,8 C 25,4 C 23,0 C 45 % 1015,4 hPa 0,0 l/m 0,77 h 0,00 h 457 W/m 17,7 km/h (3 Bft) 98,72 %
14.08.2019 18:00 23,3 C 22,7 C 21,9 C 49 % 1014,7 hPa 0,0 l/m 0,33 h 0,00 h 158 W/m 15,3 km/h (3 Bft) 96,61 %
14.08.2019 19:00 22,3 C 21,0 C 20,9 C 55 % 1014,3 hPa 0,0 l/m 0,00 h 0,07 h 53 W/m 13,3 km/h (3 Bft) 97,67 %
14.08.2019 20:00 21,2 C 19,8 C 19,6 C 60 % 1013,9 hPa 0,0 l/m 0,00 h 0,00 h 13 W/m 8,5 km/h (2 Bft) 99,12 %
14.08.2019 21:00 20,5 C 18,9 C 18,7 C 66 % 1013,6 hPa 0,0 l/m 0,00 h 0,07 h 0 W/m 2,8 km/h (1 Bft) 96,51 %
14.08.2019 22:00 19,8 C 18,6 C 18,3 C 69 % 1013,0 hPa 0,0 l/m 0,00 h 0,00 h 0 W/m 0,0 km/h (0 Bft) 98,01 %
14.08.2019 23:00 19,5 C 17,6 C 17,1 C 71 % 1012,6 hPa 0,2 l/m 0,00 h 0,60 h 0 W/m 12,6 km/h (3 Bft) 97,86 %
15.08.2019 00:00 18,3 C 14,5 C 14,3 C 81 % 1012,6 hPa 0,8 l/m 0,00 h 0,87 h 0 W/m 9,4 km/h (2 Bft) 97,05 %
15.08.2019 01:00 17,0 C 14,4 C 14,3 C 88 % 1012,1 hPa 1,2 l/m 0,00 h 0,60 h 0 W/m 6,0 km/h (2 Bft) 99,50 %
15.08.2019 02:00 16,3 C 14,7 C 14,2 C 92 % 1011,1 hPa 0,0 l/m 0,00 h 0,20 h 0 W/m 9,9 km/h (2 Bft) 95,30 %
15.08.2019 03:00 16,2 C 15,0 C 14,4 C 93 % 1010,4 hPa 0,0 l/m 0,00 h 0,00 h 0 W/m 5,2 km/h (1 Bft) 97,72 %
15.08.2019 04:00 16,2 C 14,4 C 14,1 C 93 % 1010,0 hPa 0,2 l/m 0,00 h 0,83 h 0 W/m 10,2 km/h (2 Bft) 99,43 %
15.08.2019 05:00 16,1 C 14,4 C 14,4 C 95 % 1009,4 hPa 0,0 l/m 0,00 h 0,03 h 0 W/m 19,0 km/h (3 Bft) 96,90 %
15.08.2019 06:00 15,9 C 14,7 C 14,4 C 96 % 1009,2 hPa 0,0 l/m 0,00 h 0,00 h 11 W/m 14,4 km/h (3 Bft) 97,12 %
15.08.2019 07:00 16,1 C 15,0 C 14,5 C 96 % 1009,3 hPa 0,2 l/m 0,00 h 0,20 h 33 W/m 15,7 km/h (3 Bft) 99,00 %
15.08.2019 08:00 16,6 C 16,5 C 15,5 C 96 % 1009,2 hPa 0,0 l/m 0,00 h 0,00 h 106 W/m 18,2 km/h (3 Bft) 96,72 %
15.08.2019 09:00 17,6 C 18,6 C 17,8 C 93 % 1009,1 hPa 0,0 l/m 0,23 h 0,00 h 192 W/m 21,0 km/h (4 Bft) 97,72 %
15.08.2019 10:00 19,0 C 20,0 C 19,3 C 87 % 1009,1 hPa 0,0 l/m 0,40 h 0,00 h 265 W/m 20,7 km/h (4 Bft) 99,15 %
15.08.2019 11:00 20,0 C 20,5 C 19,6 C 83 % 1009,1 hPa 0,0 l/m 0,20 h 0,20 h 273 W/m 17,5 km/h (3 Bft) 96,29 %
15.08.2019 12:00 20,6 C 22,1 C 20,7 C 83 % 1009,2 hPa 0,0 l/m 0,60 h 0,13 h 408 W/m 22,3 km/h (4 Bft) 97,42 %
15.08.2019 13:00 19,3 C 17,1 C 16,8 C 88 % 1010,0 hPa 1,0 l/m 0,03 h 0,50 h 177 W/m 16,1 km/h (3 Bft) 97,72 %
15.08.2019 14:00 19,0 C 20,4 C 18,0 C 91 % 1010,3 hPa 0,2 l/m 0,50 h 0,00 h 428 W/m 15,8 km/h (3 Bft) 98,08 %
15.08.2019 15:00 22,0 C 24,9 C 21,6 C 77 % 1010,5 hPa 0,0 l/m 0,73 h 0,00 h 584 W/m 15,8 km/h (3 Bft) 95,87 %
15.08.2019 16:00 22,0 C 22,8 C 21,4 C 68 % 1011,0 hPa 0,0 l/m 0,43 h 0,00 h 294 W/m 18,2 km/h (3 Bft) 97,58 %
15.08.2019 17:00 22,2 C 24,5 C 21,6 C 69 % 1011,4 hPa 0,0 l/m 0,90 h 0,00 h 470 W/m 14,7 km/h (3 Bft) 99,29 %
15.08.2019 18:00 22,3 C 22,5 C 20,6 C 66 % 1011,7 hPa 0,0 l/m 0,53 h 0,00 h 207 W/m 14,3 km/h (3 Bft) 94,85 %
15.08.2019 19:00 19,8 C 18,3 C 18,0 C 75 % 1012,6 hPa 0,0 l/m 0,13 h 0,20 h 62 W/m 13,7 km/h (3 Bft) 98,44 %
15.08.2019 20:00 18,4 C 17,0 C 16,9 C 82 % 1013,4 hPa 0,0 l/m 0,00 h 0,00 h 18 W/m 8,5 km/h (2 Bft) 98,58 %
15.08.2019 21:00 17,6 C 16,1 C 16,1 C 86 % 1014,6 hPa 0,0 l/m 0,00 h 0,00 h 0 W/m 4,9 km/h (1 Bft) 95,73 %
15.08.2019 22:00 16,8 C 15,2 C 15,1 C 88 % 1015,5 hPa 0,0 l/m 0,00 h 0,00 h 0 W/m 3,3 km/h (1 Bft) 97,51 %
15.08.2019 23:00 16,1 C 14,9 C 15,0 C 89 % 1015,9 hPa 0,0 l/m 0,00 h 0,00 h 0 W/m 5,4 km/h (1 Bft) 99,68 %
16.08.2019 00:00 15,9 C 14,5 C 14,3 C 89 % 1016,3 hPa 0,0 l/m 0,00 h 0,00 h 0 W/m 3,8 km/h (1 Bft) 98,24 %
16.08.2019 01:00 15,2 C 13,2 C 12,8 C 89 % 1016,5 hPa 0,0 l/m 0,00 h 0,00 h 0 W/m 0,5 km/h (0 Bft) 98,86 %
16.08.2019 02:00 14,3 C 12,4 C 11,9 C 90 % 1016,6 hPa 0,0 l/m 0,00 h 0,00 h 0 W/m 0,5 km/h (0 Bft) 96,18 %
16.08.2019 03:00 13,9 C 12,8 C 12,3 C 92 % 1016,7 hPa 0,0 l/m 0,00 h 0,00 h 0 W/m 2,4 km/h (1 Bft) 97,58 %
16.08.2019 04:00 13,8 C 12,8 C 12,7 C 94 % 1017,0 hPa 0,0 l/m 0,00 h 0,00 h 0 W/m 3,0 km/h (1 Bft) 98,73 %
16.08.2019 05:00 13,8 C 12,8 C 12,7 C 95 % 1017,0 hPa 0,0 l/m 0,00 h 0,00 h 0 W/m 3,5 km/h (1 Bft) 97,56 %
16.08.2019 06:00 13,6 C 12,9 C 12,7 C 95 % 1017,2 hPa 0,0 l/m 0,00 h 0,00 h 13 W/m 5,9 km/h (2 Bft) 96,80 %
16.08.2019 07:00 13,9 C 14,0 C 13,6 C 96 % 1017,5 hPa 0,0 l/m 0,00 h 0,00 h 42 W/m 4,7 km/h (1 Bft) 98,06 %
16.08.2019 08:00 14,8 C 15,7 C 14,9 C 96 % 1017,6 hPa 0,0 l/m 0,30 h 0,00 h 120 W/m 10,4 km/h (2 Bft) 98,01 %
16.08.2019 09:00 17,0 C 20,2 C 19,6 C 91 % 1017,4 hPa 0,0 l/m 0,97 h 0,00 h 405 W/m 14,8 km/h (3 Bft) 97,23 %
16.08.2019 10:00 18,9 C 22,3 C 22,1 C 80 % 1017,3 hPa 0,0 l/m 1,00 h 0,00 h 578 W/m 14,9 km/h (3 Bft) 99,29 %
16.08.2019 11:00 20,6 C 24,6 C 22,6 C 75 % 1017,1 hPa 0,0 l/m 1,00 h 0,00 h 652 W/m 13,9 km/h (3 Bft) 96,37 %
16.08.2019 12:00 21,1 C 22,7 C 21,4 C 71 % 1016,8 hPa 0,0 l/m 0,73 h 0,00 h 435 W/m 16,7 km/h (3 Bft) 96,78 %
16.08.2019 13:00 21,8 C 25,0 C 23,2 C 69 % 1016,5 hPa 0,0 l/m 0,63 h 0,00 h 542 W/m 14,8 km/h (3 Bft) 97,65 %
16.08.2019 14:00 23,0 C 26,1 C 24,3 C 62 % 1015,9 hPa 0,0 l/m 0,80 h 0,00 h 687 W/m 15,1 km/h (3 Bft) 99,00 %
16.08.2019 15:00 23,3 C 25,4 C 23,0 C 59 % 1015,5 hPa 0,0 l/m 0,67 h 0,00 h 572 W/m 20,4 km/h (4 Bft) 95,21 %
16.08.2019 16:00 22,9 C 24,0 C 22,7 C 59 % 1014,9 hPa 0,0 l/m 0,47 h 0,00 h 369 W/m 18,4 km/h (3 Bft) 98,37 %
16.08.2019 17:00 23,3 C 25,5 C 23,0 C 59 % 1014,1 hPa 0,0 l/m 0,83 h 0,00 h 439 W/m 17,4 km/h (3 Bft) 99,57 %
16.08.2019 18:00 23,5 C 23,7 C 21,9 C 58 % 1013,4 hPa 0,0 l/m 0,67 h 0,00 h 226 W/m 15,3 km/h (3 Bft) 94,25 %
16.08.2019 19:00 22,5 C 21,5 C 21,0 C 59 % 1013,0 hPa 0,0 l/m 0,03 h 0,00 h 67 W/m 11,3 km/h (2 Bft) 99,09 %
16.08.2019 20:00 21,7 C 20,5 C 20,3 C 61 % 1012,7 hPa 0,0 l/m 0,00 h 0,00 h 14 W/m 10,6 km/h (2 Bft) 99,43 %
16.08.2019 21:00 21,0 C 19,6 C 19,3 C 63 % 1012,6 hPa 0,0 l/m 0,00 h 0,00 h 0 W/m 7,3 km/h (2 Bft) 95,16 %
16.08.2019 22:00 20,3 C 18,9 C 18,9 C 67 % 1012,5 hPa 0,0 l/m 0,00 h 0,00 h 0 W/m 9,1 km/h (2 Bft) 97,93 %
16.08.2019 23:00 19,9 C 18,9 C 18,5 C 69 % 1011,9 hPa 0,0 l/m 0,00 h 0,03 h 0 W/m 10,0 km/h (2 Bft) 98,79 %
17.08.2019 00:00 19,5 C 16,2 C 15,7 C 75 % 1011,6 hPa 0,2 l/m 0,00 h 0,93 h 0 W/m 7,6 km/h (2 Bft) 97,32 %
17.08.2019 01:00 18,1 C 14,7 C 14,4 C 83 % 1011,0 hPa 0,6 l/m 0,00 h 1,00 h 0 W/m 9,6 km/h (2 Bft) 97,08 %
17.08.2019 02:00 17,0 C 14,7 C 14,4 C 89 % 1009,7 hPa 0,0 l/m 0,00 h 0,40 h 0 W/m 14,7 km/h (3 Bft) 97,86 %
17.08.2019 03:00 16,9 C 15,5 C 14,4 C 88 % 1008,9 hPa 0,0 l/m 0,00 h 0,00 h 0 W/m 11,8 km/h (2 Bft) 97,22 %
17.08.2019 04:00 17,1 C 16,2 C 15,0 C 87 % 1008,3 hPa 0,0 l/m 0,00 h 0,00 h 0 W/m 12,4 km/h (3 Bft) 99,65 %
17.08.2019 05:00 17,3 C 16,7 C 15,6 C 85 % 1008,1 hPa 0,0 l/m 0,00 h 0,00 h 0 W/m 9,4 km/h (2 Bft) 95,23 %
17.08.2019 06:00 17,4 C 16,7 C 16,2 C 85 % 1008,0 hPa 0,0 l/m 0,00 h 0,00 h 12 W/m 7,9 km/h (2 Bft) 98,20 %
17.08.2019 07:00 17,7 C 17,7 C 17,0 C 84 % 1008,2 hPa 0,0 l/m 0,00 h 0,00 h 36 W/m 12,0 km/h (2 Bft) 99,79 %
17.08.2019 08:00 18,5 C 18,0 C 17,5 C 82 % 1008,4 hPa 0,0 l/m 0,00 h 0,03 h 79 W/m 22,2 km/h (4 Bft) 95,66 %
17.08.2019 09:00 18,7 C 18,9 C 18,2 C 85 % 1008,6 hPa 0,0 l/m 0,00 h 0,00 h 129 W/m 10,7 km/h (2 Bft) 97,50 %
17.08.2019 10:00 19,7 C 20,3 C 19,5 C 82 % 1008,5 hPa 0,0 l/m 0,00 h 0,00 h 151 W/m 15,1 km/h (3 Bft) 98,79 %
17.08.2019 11:00 20,6 C 21,0 C 20,1 C 77 % 1008,6 hPa 0,0 l/m 0,00 h 0,00 h 220 W/m 17,3 km/h (3 Bft) 97,22 %
17.08.2019 12:00 21,1 C 21,8 C 21,1 C 78 % 1008,7 hPa 0,0 l/m 0,37 h 0,00 h 312 W/m 23,4 km/h (4 Bft) 96,50 %
17.08.2019 13:00 20,8 C 19,9 C 19,4 C 82 % 1008,7 hPa 0,2 l/m 0,00 h 0,27 h 227 W/m 19,2 km/h (3 Bft) 97,79 %
17.08.2019 14:00 20,7 C 20,7 C 20,0 C 83 % 1008,6 hPa 0,0 l/m 0,00 h 0,00 h 223 W/m 21,4 km/h (4 Bft) 99,07 %
17.08.2019 15:00 22,1 C 23,2 C 22,0 C 78 % 1008,3 hPa 0,0 l/m 0,47 h 0,00 h 314 W/m 20,8 km/h (4 Bft) 96,01 %
17.08.2019 16:00 21,7 C 19,6 C 19,3 C 80 % 1008,3 hPa 0,4 l/m 0,00 h 0,43 h 94 W/m 22,1 km/h (4 Bft) 97,65 %
17.08.2019 17:00 20,1 C 18,1 C 17,7 C 90 % 1008,3 hPa 0,2 l/m 0,00 h 0,30 h 73 W/m 11,5 km/h (2 Bft) 99,29 %
17.08.2019 18:00 20,0 C 19,2 C 17,8 C 88 % 1009,4 hPa 0,0 l/m 0,00 h 0,00 h 42 W/m 20,6 km/h (4 Bft) 94,73 %
17.08.2019 19:00 20,2 C 19,4 C 18,6 C 87 % 1010,7 hPa 0,0 l/m 0,00 h 0,00 h 23 W/m 18,5 km/h (3 Bft) 97,80 %
17.08.2019 20:00 20,2 C 19,4 C 18,9 C 87 % 1011,6 hPa 0,0 l/m 0,00 h 0,00 h 6 W/m 12,4 km/h (3 Bft) 99,43 %
17.08.2019 21:00 20,2 C 19,4 C 18,9 C 87 % 1012,4 hPa 0,0 l/m 0,00 h 0,00 h 0 W/m 14,1 km/h (3 Bft) 95,31 %
17.08.2019 22:00 20,2 C 19,4 C 18,9 C 86 % 1013,0 hPa 0,0 l/m 0,00 h 0,00 h 0 W/m 17,6 km/h (3 Bft) 97,72 %
17.08.2019 23:00 20,0 C 18,9 C 18,6 C 87 % 1013,3 hPa 0,0 l/m 0,00 h 0,10 h 0 W/m 14,7 km/h (3 Bft) 98,72 %
18.08.2019 00:00 19,6 C 17,6 C 17,1 C 89 % 1013,4 hPa 0,0 l/m 0,00 h 0,80 h 0 W/m 9,3 km/h (2 Bft) 97,04 %
18.08.2019 01:00 19,2 C 17,3 C 16,8 C 91 % 1013,6 hPa 0,0 l/m 0,00 h 0,50 h 0 W/m 6,7 km/h (2 Bft) 96,65 %
18.08.2019 02:00 18,7 C 16,5 C 16,3 C 93 % 1013,8 hPa 2,2 l/m 0,00 h 1,00 h 0 W/m 4,3 km/h (1 Bft) 97,93 %
18.08.2019 03:00 16,8 C 14,5 C 14,5 C 93 % 1014,1 hPa 2,4 l/m 0,00 h 1,00 h 0 W/m 3,5 km/h (1 Bft) 98,29 %
18.08.2019 04:00 15,4 C 13,6 C 13,7 C 95 % 1014,5 hPa 3,4 l/m 0,00 h 1,00 h 0 W/m 5,7 km/h (1 Bft) 96,51 %
18.08.2019 05:00 14,7 C 13,3 C 13,1 C 96 % 1014,1 hPa 2,0 l/m 0,00 h 0,93 h 0 W/m 4,2 km/h (1 Bft) 96,73 %
18.08.2019 06:00 14,5 C 13,3 C 12,8 C 97 % 1013,7 hPa 0,2 l/m 0,00 h 0,67 h 4 W/m 5,8 km/h (2 Bft) 98,56 %
18.08.2019 07:00 14,3 C 13,3 C 12,8 C 97 % 1013,1 hPa 0,2 l/m 0,00 h 0,30 h 18 W/m 7,6 km/h (2 Bft) 97,37 %
18.08.2019 08:00 14,3 C 13,4 C 13,0 C 98 % 1012,7 hPa 0,4 l/m 0,00 h 1,00 h 38 W/m 9,9 km/h (2 Bft) 96,72 %
18.08.2019 09:00 14,6 C 13,9 C 13,4 C 98 % 1011,6 hPa 0,4 l/m 0,00 h 0,83 h 76 W/m 11,4 km/h (2 Bft) 98,65 %
18.08.2019 10:00 15,1 C 14,4 C 14,1 C 98 % 1010,3 hPa 0,6 l/m 0,00 h 0,87 h 102 W/m 7,5 km/h (2 Bft) 97,23 %
18.08.2019 11:00 15,6 C 14,8 C 14,6 C 99 % 1009,6 hPa 1,2 l/m 0,00 h 0,83 h 79 W/m 2,1 km/h (1 Bft) 97,58 %
18.08.2019 12:00 15,9 C 15,2 C 15,0 C 99 % 1009,7 hPa 1,8 l/m 0,00 h 1,00 h 95 W/m 2,5 km/h (1 Bft) 97,68 %
18.08.2019 13:00 16,2 C 16,2 C 15,5 C 99 % 1010,2 hPa 0,4 l/m 0,00 h 0,53 h 178 W/m 2,0 km/h (1 Bft) 96,84 %
18.08.2019 14:00 17,6 C 18,4 C 17,1 C 99 % 1011,0 hPa 0,0 l/m 0,13 h 0,10 h 285 W/m 8,7 km/h (2 Bft) 97,68 %
18.08.2019 15:00 18,3 C 18,9 C 17,0 C 98 % 1011,9 hPa 0,0 l/m 0,07 h 0,00 h 157 W/m 10,7 km/h (2 Bft) 98,01 %
18.08.2019 16:00 18,3 C 18,9 C 17,5 C 95 % 1013,2 hPa 0,0 l/m 0,17 h 0,00 h 194 W/m 9,2 km/h (2 Bft) 97,36 %
18.08.2019 17:00 18,9 C 20,0 C 17,8 C 92 % 1013,8 hPa 0,0 l/m 0,53 h 0,00 h 217 W/m 10,1 km/h (2 Bft) 97,56 %
18.08.2019 18:00 19,5 C 19,8 C 17,9 C 89 % 1014,4 hPa 0,0 l/m 0,23 h 0,00 h 137 W/m 7,5 km/h (2 Bft) 98,34 %
18.08.2019 19:00 19,3 C 19,0 C 17,3 C 86 % 1014,6 hPa 0,0 l/m 0,17 h 0,00 h 74 W/m 7,8 km/h (2 Bft) 97,72 %
18.08.2019 20:00 19,0 C 17,9 C 16,7 C 86 % 1014,8 hPa 0,0 l/m 0,10 h 0,00 h 22 W/m 9,4 km/h (2 Bft) 96,13 %
18.08.2019 21:00 18,2 C 16,8 C 16,2 C 88 % 1015,1 hPa 0,0 l/m 0,00 h 0,00 h 0 W/m 9,6 km/h (2 Bft) 99,41 %
18.08.2019 22:00 17,4 C 16,1 C 15,7 C 91 % 1015,4 hPa 0,0 l/m 0,00 h 0,00 h 0 W/m 10,4 km/h (2 Bft) 97,44 %
18.08.2019 23:00 16,8 C 15,9 C 15,3 C 91 % 1016,0 hPa 0,0 l/m 0,00 h 0,00 h 0 W/m 7,9 km/h (2 Bft) 96,51 %
Min-Datum _ 14.08.19 14.08.19 14.08.19 14.08.19 17.08.19 - - - - 12.08.19 13.08.19
_ Min-Zeit 05:18 04:46 04:48 17:22 04:52 - - - - 00:48 00:02
Minimum _ 10,3 C 8,3 C 8,3 C 43 % 1007,8 hPa - - - - 0,0 km/h (0 Bft) 22,22 %
Max-Datum _ 12.08.19 12.08.19 12.08.19 18.08.19 14.08.19 12.08.19 13.08.19 15.08.19 13.08.19 17.08.19 12.08.19
_ Max-Zeit 14:04 13:22 14:02 10:40 08:36 15:52 12:08 04:05 14:02 08:04 00:56
Maximum _ 25,1 C 30,6 C 31,1 C 99 % 1018,9 hPa 4,2 l/m 0,07 h 0,08 h 1107 W/m 41,8 km/h
S-SO (6 Bft)
100,00 %
Durchschnitt _ 17,7 C 17,7 C 16,9 C 82 % 1014,0 hPa #31,0 l/m #34:24 h #22:08 h 259 W/m 10,4 km/h (2 Bft) 97,50 %
© 2019 W. Hausmann